Waterloo, Pennsylvania
Current Conditions -  °F | °C
As of 8:53 PM on Friday 28 Nov 2014 (Local Time) from KAOO Reporting Station
Clear Clear  
Wind Chill: 21°   Ceiling: Unl
Heat Index: 21°   Visibility: 10mi
Dew Point: 13°   Wind: 3mph
Humidity: 71%   Direction: 240°WSW
Pressure: 30.2"   Gusts: NA
Location:  40.3617°N, 77.6745°W
Report Text: KAOO 290153Z AUTO 24003KT 10SM CLR M06/M11 A3020 RMK AO2 SLP250 T10611106
Loading
Personal Weather Stations






























Interactive Weather Map New forecast layout! Learn more

10-Day Weather Forecast

Advertisements
Track Severe Weather on mobile